Tokyo, Japan
Current Conditions -  °F | °C
As of 9:00 PM on Tuesday 21 Oct 2014 (Local Time) from RJTT Reporting Station
Broken Clouds Broken Clouds  
Wind Chill: 21°   Ceiling: Unl
Heat Index: 21°   Visibility: 6mi
Dew Point: 17°   Wind: 13mph
Humidity: 78%   Direction: 200°SSW
Pressure: 29.88"   Gusts: NA
Location:  35.67°N, 139.77°E
Report Text: RJTT 211200Z 20011KT 9999 FEW015 BKN/// 21/17 Q1012 NOSIG
Loading
Personal Weather Stations






























Interactive Weather Map
Tropical Storm Tracking
New forecast layout! Learn more

10-Day Weather Forecast

Advertisements
Track Severe Weather on mobile